British Tenacity — MDTE9 — position and weather

sailwx.info

Track history (hours):
 
Tides and Currents Weather Stations Pressure Air Temp Water Temp Dewpoint Dewpoint Depression Visibility Wind Speed Wind Dir Waves Ship Positions

British Tenacity

Last reported at 2015-Aug-28 12:00 UTC. Time now 2015-Aug-30 01:34 UTC.
Position N 40°00' W 065°24'.

Type: Ship (hazmat cat C). MMSI: 235825000.

Wind from 020 at 10 knots

Waves 0.5 meters (2 feet), 3 second period

Barometer 1020.0 mb
Air temperature 23.5 ° C
Visibility: greater than 10.8 NM
Dewpoint 18.0 ° C
Water temperature 24.0 ° C

Date/timePositionNaut miles runAvg speedWind from/ knotsBaromVisibWave heightAir tempDewpointWater temp
2015-Aug-28 12:00N 40°00' W 065°24'15312.3 020 / 101020.010.8 0.523.518.024.0
2015-Aug-27 23:33N 40°21' W 068°43'1411.7
2015-Aug-27 22:23N 40°23' W 069°01'1111.3
2015-Aug-27 21:27N 40°25' W 069°14'1111.3
2015-Aug-27 20:26N 40°25' W 069°29'1111.7
2015-Aug-27 19:28N 40°24' W 069°44'1211.9
2015-Aug-27 18:28N 40°24' W 069°60'1312.0
2015-Aug-27 17:24N 40°24' W 070°17'1012.1
2015-Aug-27 16:33N 40°24' W 070°30'1212.3
2015-Aug-27 15:33N 40°25' W 070°46'1312.2
2015-Aug-27 14:30N 40°26' W 071°03'1111.8
2015-Aug-27 13:33N 40°30' W 071°17'1211.7
2015-Aug-27 12:33N 40°41' W 071°22'1212.0
2015-Aug-27 11:33N 40°53' W 071°23'1212.3
2015-Aug-27 10:33N 41°05' W 071°25'1313.0
2015-Aug-27 09:33N 41°18' W 071°25'1110.8
2015-Aug-27 08:34N 41°28' W 071°21'1313.0
2015-Aug-27 07:33N 41°41' W 071°19'8 7.8
2015-Aug-27 06:33N 41°48' W 071°24'0 0.0
2015-Aug-26 12:07N 41°48' W 071°24'0 0.0
2015-Aug-26 11:08N 41°48' W 071°24'0 0.1
2015-Aug-26 10:33N 41°48' W 071°24'5 4.9
2015-Aug-26 09:33N 41°44' W 071°21'1212.2
2015-Aug-26 08:33N 41°31' W 071°20'1 0.6
2015-Aug-26 07:24N 41°31' W 071°21'0 0.0
2015-Aug-26 06:33N 41°31' W 071°21'0 0.0
2015-Aug-26 05:33N 41°31' W 071°21'0 0.1
2015-Aug-26 04:30N 41°31' W 071°21'0 0.1
2015-Aug-26 03:33N 41°31' W 071°21'0 0.0
2015-Aug-26 02:32N 41°31' W 071°21'0 0.1
2015-Aug-26 01:08N 41°31' W 071°21'0 0.1
2015-Aug-26 00:29N 41°31' W 071°21'0 0.1
2015-Aug-25 23:32N 41°31' W 071°21'0 0.2
2015-Aug-25 22:29N 41°31' W 071°21'0 0.0
2015-Aug-25 21:20N 41°31' W 071°21'0 0.0
2015-Aug-25 20:29N 41°31' W 071°21'0 0.0
2015-Aug-25 19:14N 41°31' W 071°21'0 0.0
2015-Aug-25 18:32N 41°31' W 071°21'0 0.0
2015-Aug-25 17:32N 41°31' W 071°21'0 0.0
2015-Aug-25 16:32N 41°31' W 071°21'0 0.1
2015-Aug-25 15:32N 41°31' W 071°21'0 0.1
2015-Aug-25 14:32N 41°31' W 071°21'2 2.4
2015-Aug-25 13:33N 41°29' W 071°21'8 8.4
2015-Aug-25 12:34N 41°20' W 071°21'8 7.5
2015-Aug-25 11:33N 41°13' W 071°22'8 8.0
2015-Aug-25 10:34N 41°05' W 071°18'9 9.0
2015-Aug-25 09:33N 40°59' W 071°10'3 2.8
2015-Aug-25 08:34N 40°58' W 071°07'10 9.5
2015-Aug-25 07:34N 40°51' W 070°57'1313.3
2015-Aug-25 06:34N 40°44' W 070°42'1313.3
2015-Aug-25 05:34N 40°37' W 070°28'1312.8
2015-Aug-25 04:33N 40°33' W 070°11'1413.6
2015-Aug-25 03:33N 40°33' W 069°53'1313.3
2015-Aug-25 02:34N 40°34' W 069°36'1312.9
2015-Aug-25 01:34N 40°34' W 069°19'1312.5
2015-Aug-25 00:33N 40°41' W 069°05'1111.3
2015-Aug-24 23:33N 40°52' W 069°07'1110.7
2015-Aug-24 22:34N 41°02' W 069°11'1010.2
2015-Aug-24 21:32N 41°12' W 069°18'1010.2
2015-Aug-24 20:34N 41°20' W 069°24'1010.1
2015-Aug-24 19:33N 41°30' W 069°29'1010.6
2015-Aug-24 18:34N 41°39' W 069°36'1111.0
2015-Aug-24 17:32N 41°49' W 069°43'6811.0
2015-Aug-24 11:22N 42°56' W 069°58'1012.8
2015-Aug-24 10:33N 43°06' W 069°57'30 0.8
2015-Aug-22 22:30N 43°35' W 070°09'  
Track history (hours):
 
Tides and Currents Weather Stations Pressure Air Temp Water Temp Dewpoint Dewpoint Depression Visibility Wind Speed Wind Dir Waves Ship Positions

British Tenacity

Last reported at 2015-Aug-28 12:00 UTC. Time now 2015-Aug-30 01:34 UTC.
Position N 40°00' W 065°24'.

Type: Ship (hazmat cat C). MMSI: 235825000.

Wind from 020 at 10 knots

Waves 0.5 meters (2 feet), 3 second period

Barometer 1020.0 mb
Air temperature 23.5 ° C
Visibility: greater than 10.8 NM
Dewpoint 18.0 ° C
Water temperature 24.0 ° C

Date/timePositionNaut miles runAvg speedWind from/ knotsBaromVisibWave heightAir tempDewpointWater temp
2015-Aug-28 12:00N 40°00' W 065°24'15312.3 020 / 101020.010.8 0.523.518.024.0
2015-Aug-27 23:33N 40°21' W 068°43'1411.7
2015-Aug-27 22:23N 40°23' W 069°01'1111.3
2015-Aug-27 21:27N 40°25' W 069°14'1111.3
2015-Aug-27 20:26N 40°25' W 069°29'1111.7
2015-Aug-27 19:28N 40°24' W 069°44'1211.9
2015-Aug-27 18:28N 40°24' W 069°60'1312.0
2015-Aug-27 17:24N 40°24' W 070°17'1012.1
2015-Aug-27 16:33N 40°24' W 070°30'1212.3
2015-Aug-27 15:33N 40°25' W 070°46'1312.2
2015-Aug-27 14:30N 40°26' W 071°03'1111.8
2015-Aug-27 13:33N 40°30' W 071°17'1211.7
2015-Aug-27 12:33N 40°41' W 071°22'1212.0
2015-Aug-27 11:33N 40°53' W 071°23'1212.3
2015-Aug-27 10:33N 41°05' W 071°25'1313.0
2015-Aug-27 09:33N 41°18' W 071°25'1110.8
2015-Aug-27 08:34N 41°28' W 071°21'1313.0
2015-Aug-27 07:33N 41°41' W 071°19'8 7.8
2015-Aug-27 06:33N 41°48' W 071°24'0 0.0
2015-Aug-26 12:07N 41°48' W 071°24'0 0.0
2015-Aug-26 11:08N 41°48' W 071°24'0 0.1
2015-Aug-26 10:33N 41°48' W 071°24'5 4.9
2015-Aug-26 09:33N 41°44' W 071°21'1212.2
2015-Aug-26 08:33N 41°31' W 071°20'1 0.6
2015-Aug-26 07:24N 41°31' W 071°21'0 0.0
2015-Aug-26 06:33N 41°31' W 071°21'0 0.0
2015-Aug-26 05:33N 41°31' W 071°21'0 0.1
2015-Aug-26 04:30N 41°31' W 071°21'0 0.1
2015-Aug-26 03:33N 41°31' W 071°21'0 0.0
2015-Aug-26 02:32N 41°31' W 071°21'0 0.1
2015-Aug-26 01:08N 41°31' W 071°21'0 0.1
2015-Aug-26 00:29N 41°31' W 071°21'0 0.1
2015-Aug-25 23:32N 41°31' W 071°21'0 0.2
2015-Aug-25 22:29N 41°31' W 071°21'0 0.0
2015-Aug-25 21:20N 41°31' W 071°21'0 0.0
2015-Aug-25 20:29N 41°31' W 071°21'0 0.0
2015-Aug-25 19:14N 41°31' W 071°21'0 0.0
2015-Aug-25 18:32N 41°31' W 071°21'0 0.0
2015-Aug-25 17:32N 41°31' W 071°21'0 0.0
2015-Aug-25 16:32N 41°31' W 071°21'0 0.1
2015-Aug-25 15:32N 41°31' W 071°21'0 0.1
2015-Aug-25 14:32N 41°31' W 071°21'2 2.4
2015-Aug-25 13:33N 41°29' W 071°21'8 8.4
2015-Aug-25 12:34N 41°20' W 071°21'8 7.5
2015-Aug-25 11:33N 41°13' W 071°22'8 8.0
2015-Aug-25 10:34N 41°05' W 071°18'9 9.0
2015-Aug-25 09:33N 40°59' W 071°10'3 2.8
2015-Aug-25 08:34N 40°58' W 071°07'10 9.5
2015-Aug-25 07:34N 40°51' W 070°57'1313.3
2015-Aug-25 06:34N 40°44' W 070°42'1313.3
2015-Aug-25 05:34N 40°37' W 070°28'1312.8
2015-Aug-25 04:33N 40°33' W 070°11'1413.6
2015-Aug-25 03:33N 40°33' W 069°53'1313.3
2015-Aug-25 02:34N 40°34' W 069°36'1312.9
2015-Aug-25 01:34N 40°34' W 069°19'1312.5
2015-Aug-25 00:33N 40°41' W 069°05'1111.3
2015-Aug-24 23:33N 40°52' W 069°07'1110.7
2015-Aug-24 22:34N 41°02' W 069°11'1010.2
2015-Aug-24 21:32N 41°12' W 069°18'1010.2
2015-Aug-24 20:34N 41°20' W 069°24'1010.1
2015-Aug-24 19:33N 41°30' W 069°29'1010.6
2015-Aug-24 18:34N 41°39' W 069°36'1111.0
2015-Aug-24 17:32N 41°49' W 069°43'6811.0
2015-Aug-24 11:22N 42°56' W 069°58'1012.8
2015-Aug-24 10:33N 43°06' W 069°57'30 0.8
2015-Aug-22 22:30N 43°35' W 070°09'  

Dump ship's entire track history